sensor_id;sensor_type;location;lat;lon;timestamp;pressure;altitude;pressure_sealevel;temperature;humidity
6938;BME280;40040;42.706;23.372;2022-07-29T00:01:32;149075.47;;;19.88;100.00
6938;BME280;40040;42.706;23.372;2022-07-29T00:03:59;149079.19;;;19.90;100.00
6938;BME280;40040;42.706;23.372;2022-07-29T00:06:26;149084.16;;;19.92;100.00
6938;BME280;40040;42.706;23.372;2022-07-29T00:08:52;149095.34;;;19.96;100.00
6938;BME280;40040;42.706;23.372;2022-07-29T00:11:19;149050.63;;;19.78;100.00
6938;BME280;40040;42.706;23.372;2022-07-29T00:13:46;149115.25;;;20.04;100.00
6938;BME280;40040;42.706;23.372;2022-07-29T00:16:13;149122.69;;;20.07;100.00
6938;BME280;40040;42.706;23.372;2022-07-29T00:18:41;149125.16;;;20.08;100.00
6938;BME280;40040;42.706;23.372;2022-07-29T00:21:08;149118.97;;;20.06;100.00
6938;BME280;40040;42.706;23.372;2022-07-29T00:23:35;149107.75;;;20.01;100.00
6938;BME280;40040;42.706;23.372;2022-07-29T00:26:02;149125.16;;;20.08;100.00
6938;BME280;40040;42.706;23.372;2022-07-29T00:28:29;149123.94;;;20.08;100.00
6938;BME280;40040;42.706;23.372;2022-07-29T00:30:56;149105.28;;;20.00;100.00
6938;BME280;40040;42.706;23.372;2022-07-29T00:33:23;149100.31;;;19.98;100.00
6938;BME280;40040;42.706;23.372;2022-07-29T00:35:51;149084.16;;;19.92;100.00
6938;BME280;40040;42.706;23.372;2022-07-29T00:38:18;149051.84;;;19.79;100.00
6938;BME280;40040;42.706;23.372;2022-07-29T00:40:46;149038.22;;;19.73;100.00
6938;BME280;40040;42.706;23.372;2022-07-29T00:43:14;149040.69;;;19.74;100.00
6938;BME280;40040;42.706;23.372;2022-07-29T00:45:41;149064.31;;;19.84;100.00
6938;BME280;40040;42.706;23.372;2022-07-29T00:48:09;149077.94;;;19.89;100.00
6938;BME280;40040;42.706;23.372;2022-07-29T00:50:37;149092.88;;;19.95;100.00
6938;BME280;40040;42.706;23.372;2022-07-29T00:53:07;149097.84;;;19.97;100.00
6938;BME280;40040;42.706;23.372;2022-07-29T00:55:34;149089.16;;;19.94;100.00
6938;BME280;40040;42.706;23.372;2022-07-29T00:58:02;149033.25;;;19.71;100.00
6938;BME280;40040;42.706;23.372;2022-07-29T01:00:30;149112.72;;;20.03;100.00
6938;BME280;40040;42.706;23.372;2022-07-29T01:02:57;149117.69;;;20.05;100.00
6938;BME280;40040;42.706;23.372;2022-07-29T01:05:24;149112.72;;;20.03;100.00
6938;BME280;40040;42.706;23.372;2022-07-29T01:07:54;149102.81;;;19.99;100.00
6938;BME280;40040;42.706;23.372;2022-07-29T01:10:22;149092.88;;;19.95;100.00
6938;BME280;40040;42.706;23.372;2022-07-29T01:12:52;149081.72;;;19.91;100.00
6938;BME280;40040;42.706;23.372;2022-07-29T01:15:20;149077.94;;;19.89;100.00
6938;BME280;40040;42.706;23.372;2022-07-29T01:17:53;149068.03;;;19.85;100.00
6938;BME280;40040;42.706;23.372;2022-07-29T01:20:26;149058.09;;;19.81;100.00
6938;BME280;40040;42.706;23.372;2022-07-29T01:29:07;149023.31;;;19.67;100.00
6938;BME280;40040;42.706;23.372;2022-07-29T01:31:45;149045.66;;;19.76;100.00
6938;BME280;40040;42.706;23.372;2022-07-29T01:34:18;149030.75;;;19.70;100.00
6938;BME280;40040;42.706;23.372;2022-07-29T01:36:51;148999.72;;;19.58;100.00
6938;BME280;40040;42.706;23.372;2022-07-29T01:39:27;149008.41;;;19.61;100.00
6938;BME280;40040;42.706;23.372;2022-07-29T01:41:59;148988.53;;;19.53;100.00
6938;BME280;40040;42.706;23.372;2022-07-29T01:44:34;148941.31;;;19.34;100.00
6938;BME280;40040;42.706;23.372;2022-07-29T01:47:08;148839.50;;;18.93;100.00
6938;BME280;40040;42.706;23.372;2022-07-29T01:49:41;148913.94;;;19.23;100.00
6938;BME280;40040;42.706;23.372;2022-07-29T01:52:14;148896.56;;;19.16;100.00
6938;BME280;40040;42.706;23.372;2022-07-29T01:54:46;148889.13;;;19.13;100.00
6938;BME280;40040;42.706;23.372;2022-07-29T01:57:16;148879.19;;;19.09;100.00
6938;BME280;40040;42.706;23.372;2022-07-29T01:59:48;148771.22;;;18.65;100.00
6938;BME280;40040;42.706;23.372;2022-07-29T02:02:17;148859.34;;;19.01;100.00
6938;BME280;40040;42.706;23.372;2022-07-29T02:04:46;148832.00;;;18.90;100.00
6938;BME280;40040;42.706;23.372;2022-07-29T02:07:18;148876.72;;;19.08;100.00
6938;BME280;40040;42.706;23.372;2022-07-29T02:09:46;148832.00;;;18.90;100.00
6938;BME280;40040;42.706;23.372;2022-07-29T02:12:14;148864.31;;;19.03;100.00
6938;BME280;40040;42.706;23.372;2022-07-29T02:14:47;148876.72;;;19.08;100.00
6938;BME280;40040;42.706;23.372;2022-07-29T02:17:18;148873.00;;;19.06;100.00
6938;BME280;40040;42.706;23.372;2022-07-29T02:19:48;148865.56;;;19.03;100.00
6938;BME280;40040;42.706;23.372;2022-07-29T02:22:16;148875.47;;;19.07;100.00
6938;BME280;40040;42.706;23.372;2022-07-29T02:24:45;148901.53;;;19.18;100.00
6938;BME280;40040;42.706;23.372;2022-07-29T02:27:14;148906.50;;;19.20;100.00
6938;BME280;40040;42.706;23.372;2022-07-29T02:29:42;148911.47;;;19.22;100.00
6938;BME280;40040;42.706;23.372;2022-07-29T02:32:12;148894.09;;;19.15;100.00
6938;BME280;40040;42.706;23.372;2022-07-29T02:34:41;148891.63;;;19.14;100.00
6938;BME280;40040;42.706;23.372;2022-07-29T02:37:10;148901.53;;;19.18;100.00
6938;BME280;40040;42.706;23.372;2022-07-29T02:39:39;148879.19;;;19.09;100.00
6938;BME280;40040;42.706;23.372;2022-07-29T02:42:11;148851.91;;;18.98;100.00
6938;BME280;40040;42.706;23.372;2022-07-29T02:44:39;148836.97;;;18.92;100.00
6938;BME280;40040;42.706;23.372;2022-07-29T02:47:13;148823.31;;;18.86;100.00
6938;BME280;40040;42.706;23.372;2022-07-29T02:49:48;148819.59;;;18.85;100.00
6938;BME280;40040;42.706;23.372;2022-07-29T02:52:22;148813.41;;;18.82;100.00
6938;BME280;40040;42.706;23.372;2022-07-29T02:54:53;148832.00;;;18.90;100.00
6938;BME280;40040;42.706;23.372;2022-07-29T02:57:30;148781.13;;;18.69;100.00
6938;BME280;40040;42.706;23.372;2022-07-29T03:00:00;148839.50;;;18.93;100.00
6938;BME280;40040;42.706;23.372;2022-07-29T03:02:33;148767.47;;;18.64;100.00
6938;BME280;40040;42.706;23.372;2022-07-29T03:05:02;148818.38;;;18.84;100.00
6938;BME280;40040;42.706;23.372;2022-07-29T03:07:29;148799.75;;;18.77;100.00
6938;BME280;40040;42.706;23.372;2022-07-29T03:09:56;148814.63;;;18.83;100.00
6938;BME280;40040;42.706;23.372;2022-07-29T03:12:24;148819.59;;;18.85;100.00
6938;BME280;40040;42.706;23.372;2022-07-29T03:14:52;148694.19;;;18.34;100.00
6938;BME280;40040;42.706;23.372;2022-07-29T03:17:21;148751.34;;;18.57;100.00
6938;BME280;40040;42.706;23.372;2022-07-29T03:19:49;148757.56;;;18.60;100.00
6938;BME280;40040;42.706;23.372;2022-07-29T03:22:16;148809.69;;;18.81;100.00
6938;BME280;40040;42.706;23.372;2022-07-29T03:24:43;148814.63;;;18.83;100.00
6938;BME280;40040;42.706;23.372;2022-07-29T03:27:10;148803.47;;;18.78;100.00
6938;BME280;40040;42.706;23.372;2022-07-29T03:29:37;148794.78;;;18.75;100.00
6938;BME280;40040;42.706;23.372;2022-07-29T03:32:05;148786.09;;;18.71;100.00
6938;BME280;40040;42.706;23.372;2022-07-29T03:34:32;148771.22;;;18.65;100.00
6938;BME280;40040;42.706;23.372;2022-07-29T03:37:00;148733.97;;;18.50;100.00
6938;BME280;40040;42.706;23.372;2022-07-29T03:39:29;148752.59;;;18.58;100.00
6938;BME280;40040;42.706;23.372;2022-07-29T03:41:59;148742.66;;;18.54;100.00
6938;BME280;40040;42.706;23.372;2022-07-29T03:44:27;148755.06;;;18.59;100.00
6938;BME280;40040;42.706;23.372;2022-07-29T03:46:57;148756.31;;;18.59;100.00
6938;BME280;40040;42.706;23.372;2022-07-29T03:49:27;148742.66;;;18.54;100.00
6938;BME280;40040;42.706;23.372;2022-07-29T03:51:54;148738.94;;;18.52;100.00
6938;BME280;40040;42.706;23.372;2022-07-29T03:54:23;148747.63;;;18.56;100.00
6938;BME280;40040;42.706;23.372;2022-07-29T03:56:50;148766.25;;;18.63;100.00
6938;BME280;40040;42.706;23.372;2022-07-29T03:59:20;148750.09;;;18.57;100.00
6938;BME280;40040;42.706;23.372;2022-07-29T04:01:47;148746.38;;;18.55;100.00
6938;BME280;40040;42.706;23.372;2022-07-29T04:04:15;148752.59;;;18.58;100.00
6938;BME280;40040;42.706;23.372;2022-07-29T04:06:43;148767.47;;;18.64;100.00
6938;BME280;40040;42.706;23.372;2022-07-29T04:09:11;148763.75;;;18.62;100.00
6938;BME280;40040;42.706;23.372;2022-07-29T04:11:40;148762.53;;;18.62;100.00
6938;BME280;40040;42.706;23.372;2022-07-29T04:14:07;148761.28;;;18.61;100.00
6938;BME280;40040;42.706;23.372;2022-07-29T04:16:33;148720.28;;;18.45;100.00
6938;BME280;40040;42.706;23.372;2022-07-29T04:19:00;148799.75;;;18.77;100.00
6938;BME280;40040;42.706;23.372;2022-07-29T04:21:27;148804.72;;;18.79;100.00
6938;BME280;40040;42.706;23.372;2022-07-29T04:23:54;148822.09;;;18.86;100.00
6938;BME280;40040;42.706;23.372;2022-07-29T04:26:21;148755.06;;;18.59;100.00
6938;BME280;40040;42.706;23.372;2022-07-29T04:28:49;148854.34;;;18.99;100.00
6938;BME280;40040;42.706;23.372;2022-07-29T04:31:16;148861.84;;;19.02;100.00
6938;BME280;40040;42.706;23.372;2022-07-29T04:33:42;148873.00;;;19.06;100.00
6938;BME280;40040;42.706;23.372;2022-07-29T04:36:09;148876.72;;;19.08;100.00
6938;BME280;40040;42.706;23.372;2022-07-29T04:38:38;148757.56;;;18.60;100.00
6938;BME280;40040;42.706;23.372;2022-07-29T04:41:05;148889.13;;;19.13;100.00
6938;BME280;40040;42.706;23.372;2022-07-29T04:43:33;148912.75;;;19.23;100.00
6938;BME280;40040;42.706;23.372;2022-07-29T04:46:02;148922.66;;;19.27;100.00
6938;BME280;40040;42.706;23.372;2022-07-29T04:48:29;148918.91;;;19.25;100.00
6938;BME280;40040;42.706;23.372;2022-07-29T04:50:56;148945.03;;;19.36;100.00
6938;BME280;40040;42.706;23.372;2022-07-29T04:53:22;148950.03;;;19.38;100.00
6938;BME280;40040;42.706;23.372;2022-07-29T04:55:49;148973.63;;;19.47;100.00
6938;BME280;40040;42.706;23.372;2022-07-29T04:58:16;148874.25;;;19.07;100.00
6938;BME280;40040;42.706;23.372;2022-07-29T05:00:43;149010.88;;;19.62;100.00
6938;BME280;40040;42.706;23.372;2022-07-29T05:03:12;149024.56;;;19.68;100.00
6938;BME280;40040;42.706;23.372;2022-07-29T05:05:38;149058.09;;;19.81;100.00
6938;BME280;40040;42.706;23.372;2022-07-29T05:08:06;149081.72;;;19.91;100.00
6938;BME280;40040;42.706;23.372;2022-07-29T05:10:33;149087.88;;;19.93;100.00
6938;BME280;40040;42.706;23.372;2022-07-29T05:13:03;149106.53;;;20.01;100.00
6938;BME280;40040;42.706;23.372;2022-07-29T05:15:30;149115.25;;;20.04;100.00
6938;BME280;40040;42.706;23.372;2022-07-29T05:17:57;149140.06;;;20.14;100.00
6938;BME280;40040;42.706;23.372;2022-07-29T05:20:26;149161.25;;;20.23;100.00
6938;BME280;40040;42.706;23.372;2022-07-29T05:22:54;149186.09;;;20.33;100.00
6938;BME280;40040;42.706;23.372;2022-07-29T05:25:21;149204.75;;;20.41;100.00
6938;BME280;40040;42.706;23.372;2022-07-29T05:27:48;149227.13;;;20.50;100.00
6938;BME280;40040;42.706;23.372;2022-07-29T05:30:14;149264.38;;;20.65;100.00
6938;BME280;40040;42.706;23.372;2022-07-29T05:32:41;149296.72;;;20.78;100.00
6938;BME280;40040;42.706;23.372;2022-07-29T05:35:08;149322.84;;;20.88;100.00
6938;BME280;40040;42.706;23.372;2022-07-29T05:37:36;149342.72;;;20.96;100.00
6938;BME280;40040;42.706;23.372;2022-07-29T05:40:04;149358.91;;;21.03;100.00
6938;BME280;40040;42.706;23.372;2022-07-29T05:42:31;149388.75;;;21.15;100.00
6938;BME280;40040;42.706;23.372;2022-07-29T05:44:58;149431.06;;;21.32;100.00
6938;BME280;40040;42.706;23.372;2022-07-29T05:47:25;149472.06;;;21.49;100.00
6938;BME280;40040;42.706;23.372;2022-07-29T05:49:52;149437.25;;;21.35;100.00
6938;BME280;40040;42.706;23.372;2022-07-29T05:52:19;149565.38;;;21.86;100.00
6938;BME280;40040;42.706;23.372;2022-07-29T05:54:47;149602.72;;;22.01;100.00
6938;BME280;40040;42.706;23.372;2022-07-29T05:57:18;149655.00;;;22.22;100.00
6938;BME280;40040;42.706;23.372;2022-07-29T05:59:46;149684.84;;;22.34;100.00
6938;BME280;40040;42.706;23.372;2022-07-29T06:02:14;149734.66;;;22.55;100.00
6938;BME280;40040;42.706;23.372;2022-07-29T06:04:41;149800.63;;;22.81;100.00
6938;BME280;40040;42.706;23.372;2022-07-29T06:07:08;149809.34;;;22.85;100.00
6938;BME280;40040;42.706;23.372;2022-07-29T06:09:35;149913.94;;;23.27;100.00
6938;BME280;40040;42.706;23.372;2022-07-29T06:12:04;149926.41;;;23.32;100.00
6938;BME280;40040;42.706;23.372;2022-07-29T06:14:31;149948.84;;;23.41;100.00
6938;BME280;40040;42.706;23.372;2022-07-29T06:16:58;149966.28;;;23.48;100.00
6938;BME280;40040;42.706;23.372;2022-07-29T06:19:24;149997.38;;;23.61;100.00
6938;BME280;40040;42.706;23.372;2022-07-29T06:21:51;150050.94;;;23.82;100.00
6938;BME280;40040;42.706;23.372;2022-07-29T06:24:18;150093.34;;;23.99;100.00
6938;BME280;40040;42.706;23.372;2022-07-29T06:26:45;150115.75;;;24.08;100.00
6938;BME280;40040;42.706;23.372;2022-07-29T06:29:13;150128.22;;;24.13;100.00
6938;BME280;40040;42.706;23.372;2022-07-29T06:31:40;150188.00;;;24.37;100.00
6938;BME280;40040;42.706;23.372;2022-07-29T06:34:07;150175.56;;;24.32;100.00
6938;BME280;40040;42.706;23.372;2022-07-29T06:36:35;150212.97;;;24.47;100.00
6938;BME280;40040;42.706;23.372;2022-07-29T06:39:04;150274.09;;;24.72;100.00
6938;BME280;40040;42.706;23.372;2022-07-29T06:41:31;150327.66;;;24.94;100.00
6938;BME280;40040;42.706;23.372;2022-07-29T06:43:58;150368.81;;;25.10;100.00
6938;BME280;40040;42.706;23.372;2022-07-29T06:46:26;150413.66;;;25.28;100.00
6938;BME280;40040;42.706;23.372;2022-07-29T06:48:54;150474.81;;;25.53;100.00
6938;BME280;40040;42.706;23.372;2022-07-29T06:51:21;150522.19;;;25.72;100.00
6938;BME280;40040;42.706;23.372;2022-07-29T06:53:49;150487.28;;;25.58;100.00
6938;BME280;40040;42.706;23.372;2022-07-29T06:56:15;150497.25;;;25.62;100.00
6938;BME280;40040;42.706;23.372;2022-07-29T06:58:42;150532.19;;;25.76;100.00
6938;BME280;40040;42.706;23.372;2022-07-29T07:01:09;150567.09;;;25.90;100.00
6938;BME280;40040;42.706;23.372;2022-07-29T07:03:37;150624.53;;;26.13;89.87
6938;BME280;40040;42.706;23.372;2022-07-29T07:06:04;150714.34;;;26.49;86.03
6938;BME280;40040;42.706;23.372;2022-07-29T07:08:31;150804.22;;;26.86;83.80
6938;BME280;40040;42.706;23.372;2022-07-29T07:10:59;150814.22;;;26.90;83.94
6938;BME280;40040;42.706;23.372;2022-07-29T07:13:26;150804.22;;;26.86;83.40
6938;BME280;40040;42.706;23.372;2022-07-29T07:15:53;150854.19;;;27.06;82.87
6938;BME280;40040;42.706;23.372;2022-07-29T07:18:20;150794.22;;;26.82;81.84
6938;BME280;40040;42.706;23.372;2022-07-29T07:20:48;150831.69;;;26.97;83.37
6938;BME280;40040;42.706;23.372;2022-07-29T07:23:16;150839.19;;;27.00;82.37
6938;BME280;40040;42.706;23.372;2022-07-29T07:25:43;150771.81;;;26.73;82.26
6938;BME280;40040;42.706;23.372;2022-07-29T07:28:10;150885.34;;;27.18;81.78
6938;BME280;40040;42.706;23.372;2022-07-29T07:30:37;150896.59;;;27.23;82.08
6938;BME280;40040;42.706;23.372;2022-07-29T07:33:04;150935.34;;;27.38;82.19
6938;BME280;40040;42.706;23.372;2022-07-29T07:35:32;150954.09;;;27.46;81.15
6938;BME280;40040;42.706;23.372;2022-07-29T07:38:00;150960.28;;;27.48;80.79
6938;BME280;40040;42.706;23.372;2022-07-29T07:40:27;151009.00;;;27.68;79.77
6938;BME280;40040;42.706;23.372;2022-07-29T07:42:54;150989.00;;;27.60;79.60
6938;BME280;40040;42.706;23.372;2022-07-29T07:45:22;150979.03;;;27.56;79.23
6938;BME280;40040;42.706;23.372;2022-07-29T07:47:49;150981.50;;;27.57;79.43
6938;BME280;40040;42.706;23.372;2022-07-29T07:50:16;150982.78;;;27.57;78.32
6938;BME280;40040;42.706;23.372;2022-07-29T07:52:48;150971.56;;;27.53;78.83
6938;BME280;40040;42.706;23.372;2022-07-29T07:55:17;151042.69;;;27.82;77.80
6938;BME280;40040;42.706;23.372;2022-07-29T07:57:45;151071.44;;;27.93;77.95
6938;BME280;40040;42.706;23.372;2022-07-29T08:00:13;151000.25;;;27.64;77.28
6938;BME280;40040;42.706;23.372;2022-07-29T08:02:40;151078.97;;;27.96;77.63
6938;BME280;40040;42.706;23.372;2022-07-29T08:05:09;151086.47;;;27.99;76.98
6938;BME280;40040;42.706;23.372;2022-07-29T08:07:37;151101.47;;;28.05;77.23
6938;BME280;40040;42.706;23.372;2022-07-29T08:10:04;151118.94;;;28.12;76.02
6938;BME280;40040;42.706;23.372;2022-07-29T08:12:33;151183.91;;;28.38;75.33
6938;BME280;40040;42.706;23.372;2022-07-29T08:15:00;151170.16;;;28.33;73.58
6938;BME280;40040;42.706;23.372;2022-07-29T08:17:27;151196.38;;;28.43;73.50
6938;BME280;40040;42.706;23.372;2022-07-29T08:19:54;151165.16;;;28.31;72.80
6938;BME280;40040;42.706;23.372;2022-07-29T08:22:21;151178.91;;;28.36;72.97
6938;BME280;40040;42.706;23.372;2022-07-29T08:24:48;151250.13;;;28.65;73.23
6938;BME280;40040;42.706;23.372;2022-07-29T08:27:19;151313.88;;;28.91;70.95
6938;BME280;40040;42.706;23.372;2022-07-29T08:29:48;151336.34;;;29.00;70.74
6938;BME280;40040;42.706;23.372;2022-07-29T08:32:15;151333.84;;;28.99;72.32
6938;BME280;40040;42.706;23.372;2022-07-29T08:34:42;151422.66;;;29.34;69.94
6938;BME280;40040;42.706;23.372;2022-07-29T08:37:11;151406.38;;;29.28;67.97
6938;BME280;40040;42.706;23.372;2022-07-29T08:39:38;151358.84;;;29.09;69.10
6938;BME280;40040;42.706;23.372;2022-07-29T08:42:06;151406.38;;;29.28;68.64
6938;BME280;40040;42.706;23.372;2022-07-29T08:44:33;151468.88;;;29.53;68.35
6938;BME280;40040;42.706;23.372;2022-07-29T08:47:02;151486.38;;;29.60;65.65
6938;BME280;40040;42.706;23.372;2022-07-29T08:49:30;151473.88;;;29.55;66.42
6938;BME280;40040;42.706;23.372;2022-07-29T08:51:58;151478.91;;;29.57;67.13
6938;BME280;40040;42.706;23.372;2022-07-29T08:54:27;151552.69;;;29.87;65.44
6938;BME280;40040;42.706;23.372;2022-07-29T08:56:54;151591.44;;;30.02;64.07
6938;BME280;40040;42.706;23.372;2022-07-29T08:59:25;151628.94;;;30.17;63.74
6938;BME280;40040;42.706;23.372;2022-07-29T09:01:53;151652.72;;;30.27;64.43
6938;BME280;40040;42.706;23.372;2022-07-29T09:04:23;151696.50;;;30.44;63.60
6938;BME280;40040;42.706;23.372;2022-07-29T09:06:52;151774.09;;;30.75;62.50
6938;BME280;40040;42.706;23.372;2022-07-29T09:09:20;151825.41;;;30.96;62.04
6938;BME280;40040;42.706;23.372;2022-07-29T09:11:47;151869.22;;;31.14;59.83
6938;BME280;40040;42.706;23.372;2022-07-29T09:14:15;151839.19;;;31.02;59.84
6938;BME280;40040;42.706;23.372;2022-07-29T09:16:53;151885.47;;;31.20;57.98
6938;BME280;40040;42.706;23.372;2022-07-29T09:19:27;151913.00;;;31.31;57.89
6938;BME280;40040;42.706;23.372;2022-07-29T09:21:55;151979.34;;;31.58;54.33
6938;BME280;40040;42.706;23.372;2022-07-29T09:24:25;151969.34;;;31.54;53.22
6938;BME280;40040;42.706;23.372;2022-07-29T09:26:52;151965.56;;;31.52;53.08
6938;BME280;40040;42.706;23.372;2022-07-29T09:29:21;151919.28;;;31.34;52.52
6938;BME280;40040;42.706;23.372;2022-07-29T09:31:50;152016.91;;;31.73;50.65
6938;BME280;40040;42.706;23.372;2022-07-29T09:34:22;152046.94;;;31.85;52.41
6938;BME280;40040;42.706;23.372;2022-07-29T09:36:51;152000.59;;;31.66;53.08
6938;BME280;40040;42.706;23.372;2022-07-29T09:39:27;151951.84;;;31.47;54.70
6938;BME280;40040;42.706;23.372;2022-07-29T09:41:57;152070.75;;;31.94;53.46
6938;BME280;40040;42.706;23.372;2022-07-29T09:44:25;152164.66;;;32.32;51.55
6938;BME280;40040;42.706;23.372;2022-07-29T09:46:55;152168.41;;;32.34;51.28
6938;BME280;40040;42.706;23.372;2022-07-29T09:49:23;152202.25;;;32.47;51.56
6938;BME280;40040;42.706;23.372;2022-07-29T09:52:04;152266.09;;;32.73;49.54
6938;BME280;40040;42.706;23.372;2022-07-29T09:54:32;152258.59;;;32.70;48.05
6938;BME280;40040;42.706;23.372;2022-07-29T09:57:03;152192.22;;;32.43;49.16
6938;BME280;40040;42.706;23.372;2022-07-29T09:59:31;152191.00;;;32.43;47.47
6938;BME280;40040;42.706;23.372;2022-07-29T10:02:01;152227.28;;;32.57;47.32
6938;BME280;40040;42.706;23.372;2022-07-29T10:04:39;152325.03;;;32.96;47.22
6938;BME280;40040;42.706;23.372;2022-07-29T10:07:07;152343.78;;;33.04;47.37
6938;BME280;40040;42.706;23.372;2022-07-29T10:09:35;152262.34;;;32.71;45.76
6938;BME280;40040;42.706;23.372;2022-07-29T10:12:07;152363.84;;;33.12;46.23
6938;BME280;40040;42.706;23.372;2022-07-29T10:14:35;152431.47;;;33.39;46.63
6938;BME280;40040;42.706;23.372;2022-07-29T10:17:04;152356.34;;;33.09;47.62
6938;BME280;40040;42.706;23.372;2022-07-29T10:19:33;152327.50;;;32.97;46.51
6938;BME280;40040;42.706;23.372;2022-07-29T10:22:07;152385.16;;;33.21;46.08
6938;BME280;40040;42.706;23.372;2022-07-29T10:24:37;152440.25;;;33.43;46.44
6938;BME280;40040;42.706;23.372;2022-07-29T10:27:06;152375.09;;;33.17;44.59
6938;BME280;40040;42.706;23.372;2022-07-29T10:29:33;152435.22;;;33.41;44.54
6938;BME280;40040;42.706;23.372;2022-07-29T10:32:26;152440.25;;;33.43;43.90
6938;BME280;40040;42.706;23.372;2022-07-29T10:35:19;152420.22;;;33.35;44.05
6938;BME280;40040;42.706;23.372;2022-07-29T10:38:26;152427.72;;;33.38;42.89
6938;BME280;40040;42.706;23.372;2022-07-29T10:41:02;152340.03;;;33.02;43.48
6938;BME280;40040;42.706;23.372;2022-07-29T10:43:49;152304.91;;;32.88;44.41
6938;BME280;40040;42.706;23.372;2022-07-29T10:46:18;152405.16;;;33.29;43.54
6938;BME280;40040;42.706;23.372;2022-07-29T10:49:06;152505.44;;;33.69;42.58
6938;BME280;40040;42.706;23.372;2022-07-29T10:51:59;152560.59;;;33.91;41.67
6938;BME280;40040;42.706;23.372;2022-07-29T10:54:47;152533.03;;;33.80;44.04
6938;BME280;40040;42.706;23.372;2022-07-29T10:57:27;152513.00;;;33.72;42.62
6938;BME280;40040;42.706;23.372;2022-07-29T11:00:30;152393.91;;;33.24;42.82
6938;BME280;40040;42.706;23.372;2022-07-29T11:02:58;152425.25;;;33.37;44.06
6938;BME280;40040;42.706;23.372;2022-07-29T11:05:26;152423.97;;;33.36;42.49
6938;BME280;40040;42.706;23.372;2022-07-29T11:08:23;152405.16;;;33.29;43.63
6938;BME280;40040;42.706;23.372;2022-07-29T11:10:53;152422.72;;;33.36;44.60
6938;BME280;40040;42.706;23.372;2022-07-29T11:13:48;152539.31;;;33.82;43.97
6938;BME280;40040;42.706;23.372;2022-07-29T11:16:18;152482.88;;;33.60;43.68
6938;BME280;40040;42.706;23.372;2022-07-29T11:19:18;152482.88;;;33.60;44.93
6938;BME280;40040;42.706;23.372;2022-07-29T11:21:46;152446.56;;;33.45;44.72
6938;BME280;40040;42.706;23.372;2022-07-29T11:24:16;152513.00;;;33.72;45.33
6938;BME280;40040;42.706;23.372;2022-07-29T11:26:44;152603.25;;;34.08;44.19
6938;BME280;40040;42.706;23.372;2022-07-29T11:29:19;152565.56;;;33.93;43.94
6938;BME280;40040;42.706;23.372;2022-07-29T11:31:49;152517.97;;;33.74;44.00
6938;BME280;40040;42.706;23.372;2022-07-29T11:34:24;152565.56;;;33.93;44.48
6938;BME280;40040;42.706;23.372;2022-07-29T11:37:20;152595.75;;;34.05;43.72
6938;BME280;40040;42.706;23.372;2022-07-29T11:40:16;152633.31;;;34.20;43.44
6938;BME280;40040;42.706;23.372;2022-07-29T11:42:45;152608.25;;;34.10;43.11
6938;BME280;40040;42.706;23.372;2022-07-29T11:45:25;152586.97;;;34.01;42.97
6938;BME280;40040;42.706;23.372;2022-07-29T11:47:59;152588.19;;;34.02;43.08
6938;BME280;40040;42.706;23.372;2022-07-29T11:50:32;152530.53;;;33.79;43.11
6938;BME280;40040;42.706;23.372;2022-07-29T11:53:01;152487.91;;;33.62;44.83
6938;BME280;40040;42.706;23.372;2022-07-29T11:55:28;152507.97;;;33.70;43.40
6938;BME280;40040;42.706;23.372;2022-07-29T11:57:58;152449.06;;;33.46;44.44
6938;BME280;40040;42.706;23.372;2022-07-29T12:00:29;152382.66;;;33.20;43.88
6938;BME280;40040;42.706;23.372;2022-07-29T12:02:58;152353.81;;;33.08;44.47
6938;BME280;40040;42.706;23.372;2022-07-29T12:05:34;152372.63;;;33.16;44.38
6938;BME280;40040;42.706;23.372;2022-07-29T12:08:10;152391.44;;;33.23;43.50
6938;BME280;40040;42.706;23.372;2022-07-29T12:10:38;152439.03;;;33.42;43.57
6938;BME280;40040;42.706;23.372;2022-07-29T12:13:05;152495.44;;;33.65;43.54
6938;BME280;40040;42.706;23.372;2022-07-29T12:15:34;152441.56;;;33.43;43.54
6938;BME280;40040;42.706;23.372;2022-07-29T12:18:12;152377.66;;;33.18;43.29
6938;BME280;40040;42.706;23.372;2022-07-29T12:20:39;152362.59;;;33.12;43.60
6938;BME280;40040;42.706;23.372;2022-07-29T12:23:07;152377.66;;;33.18;44.18
6938;BME280;40040;42.706;23.372;2022-07-29T12:25:38;152390.16;;;33.23;44.92
6938;BME280;40040;42.706;23.372;2022-07-29T12:28:07;152370.09;;;33.15;43.91
6938;BME280;40040;42.706;23.372;2022-07-29T12:30:40;152459.09;;;33.50;44.46
6938;BME280;40040;42.706;23.372;2022-07-29T12:33:20;152461.59;;;33.51;43.12
6938;BME280;40040;42.706;23.372;2022-07-29T12:35:49;152485.41;;;33.61;42.23
6938;BME280;40040;42.706;23.372;2022-07-29T12:38:17;152455.34;;;33.49;42.92
6938;BME280;40040;42.706;23.372;2022-07-29T12:40:45;152497.94;;;33.66;41.84
6938;BME280;40040;42.706;23.372;2022-07-29T12:43:14;152481.66;;;33.59;42.52
6938;BME280;40040;42.706;23.372;2022-07-29T12:45:46;152410.19;;;33.31;42.20
6938;BME280;40040;42.706;23.372;2022-07-29T12:48:14;152370.09;;;33.15;42.26
6938;BME280;40040;42.706;23.372;2022-07-29T12:50:55;152417.69;;;33.34;43.58
6938;BME280;40040;42.706;23.372;2022-07-29T12:53:23;152495.44;;;33.65;42.29
6938;BME280;40040;42.706;23.372;2022-07-29T12:55:52;152412.72;;;33.32;42.10
6938;BME280;40040;42.706;23.372;2022-07-29T12:58:30;152500.41;;;33.67;42.41
6938;BME280;40040;42.706;23.372;2022-07-29T13:01:05;152462.84;;;33.52;42.47
6938;BME280;40040;42.706;23.372;2022-07-29T13:03:49;152421.50;;;33.35;41.95
6938;BME280;40040;42.706;23.372;2022-07-29T13:06:37;152435.22;;;33.41;42.93